PROFILE

 METAR AND TAF INFORMATION
ADDS - METARS form results

(0807 UTC 19 August 2019)
http://aviationweather.gov/metar/data/
 
ENBR 190750Z 21013KT 9999 VCSH FEW015 FEW020CB SCT025 14/12 Q0997 TEMPO 20015G25KT SHRA RMK WIND 1200FT 21015KT
ENBR 190720Z 21010KT 9999 VCSH FEW010 SCT016TCU BKN035 14/12 Q0996 TEMPO 20015G25KT SHRA RMK WIND 1200FT 22018KT
TAF ENBR 1906/2006 18012KT 9999 FEW008 FEW020TCU BKN025 TEMPO 1906/2006 19015G25KT SHRA BKN012 SCT020CB PROB30 TEMPO 1906/1915 4000 TSRA BKN012CB 

 AIRPORT MAP

 RUNWAY INFORMATION
Runway 17 Runway length 9810 ft Runway width 148 ft
Runway elevation 165 ft Runway displaced threshold 886 ft Runway heading 171
Runway 35 Runway length 9810 ft Runway width 148 ft
Runway elevation 146 ft Runway displaced threshold 889 ft Runway heading 351

 AIRPORT FREQUENCIES
Type APP Name RADAR Frequency 121 MHZ
Type ARR Name ARR Frequency 125 MHZ
Type ATIS Name ATIS Frequency 125.25 MHZ
Type DIR Name DIRECTOR Frequency 118.85 MHZ
Type GND Name GND Frequency 121.9 MHZ
Type TWR Name TWR Frequency 119.1 MHZ

 AIRPORT NEAR NAVIGATION AIDS
Type NDB Name Askoy Frequency 360 KHZ
Type NDB Name Bratta Frequency 336 KHZ
Type TACAN Name Flesland Frequency 114500 KHZ
Type VOR-DME Name Flesland Frequency 115550 KHZ
Type VOR-DME Name Vollo Frequency 114850 KHZ